RJOO/ITM METAR and TAF weather

Enter ICAO airport designator
Station Type Date Time Source
RJOO METAR 2021/09/25 03:00 UTC NOAA

RJOO 250300Z VRB02KT 9999 FEW030 SCT040 29/20 Q1020


Station Type Date Time Source
RJOO Decoded METAR 2021/09/25 03:00 UTC NOAA

Osaka International Airport, Japan (RJOO) 34-47N 135-27E 15M
Sep 24, 2021 - 11:00 PM EDT / 2021.09.25 0300 UTC
Wind: Variable at 2 MPH (2 KT):0
Visibility: greater than 7 mile(s):0
Sky conditions: partly cloudy
Temperature: 84 F (29 C)
Dew Point: 68 F (20 C)
Relative Humidity: 58%
Pressure (altimeter): 30.12 in. Hg (1020 hPa)
ob: RJOO 250300Z VRB02KT 9999 FEW030 SCT040 29/20 Q1020
cycle: 3

Station Type Date Time Source
RJOO TAF 2021/09/24 18:28 UTC NOAA

TAF RJOO 241705Z 2418/2600 32006KT 9999 FEW025
BECMG 2500/2502 06010KT

Example: see airport list